createdAt,value
2016-02-14T00:00:24.180Z,0
2016-02-14T00:01:24.182Z,0
2016-02-14T00:02:24.169Z,0
2016-02-14T00:03:24.188Z,0
2016-02-14T00:04:24.159Z,0
2016-02-14T00:05:24.177Z,0
2016-02-14T00:06:24.180Z,0
2016-02-14T00:07:24.167Z,0
2016-02-14T00:08:24.185Z,0
2016-02-14T00:09:24.173Z,0
2016-02-14T00:10:24.160Z,0
2016-02-14T00:11:24.163Z,0
2016-02-14T00:12:24.181Z,0
2016-02-14T00:13:24.167Z,0
2016-02-14T00:14:24.171Z,0
2016-02-14T00:15:24.173Z,0
2016-02-14T00:16:24.175Z,0
2016-02-14T00:17:24.179Z,0
2016-02-14T00:18:24.165Z,0
2016-02-14T00:19:24.184Z,0
2016-02-14T00:20:24.170Z,0
2016-02-14T00:21:24.189Z,0
2016-02-14T00:22:24.192Z,0
2016-02-14T00:23:24.164Z,0
2016-02-14T00:24:24.166Z,0
2016-02-14T00:25:24.168Z,0
2016-02-14T00:26:24.172Z,0
2016-02-14T00:27:24.158Z,0
2016-02-14T00:28:24.161Z,0
2016-02-14T00:29:24.164Z,0
2016-02-14T00:30:24.167Z,0
2016-02-14T00:31:24.020Z,0
2016-02-14T00:32:24.023Z,0
2016-02-14T00:33:24.181Z,0
2016-02-14T00:34:24.168Z,0
2016-02-14T00:35:24.161Z,0
2016-02-14T00:36:24.163Z,0
2016-02-14T00:37:24.166Z,0
2016-02-14T00:38:24.184Z,0
2016-02-14T00:39:24.171Z,0
2016-02-14T00:40:24.159Z,0
2016-02-14T00:41:24.145Z,0
2016-02-14T00:42:24.163Z,0
2016-02-14T00:43:24.167Z,0
2016-02-14T00:44:24.185Z,0
2016-02-14T00:45:24.155Z,0
2016-02-14T00:46:24.158Z,0
2016-02-14T00:47:24.161Z,0
2016-02-14T00:48:25.742Z,0
2016-02-14T00:49:24.152Z,0
2016-02-14T00:50:24.154Z,0
2016-02-14T00:51:24.157Z,0
2016-02-14T00:52:24.175Z,0
2016-02-14T00:53:24.162Z,0
2016-02-14T00:54:24.148Z,0
2016-02-14T00:55:24.152Z,0
2016-02-14T00:56:24.154Z,0
2016-02-14T00:57:24.157Z,0
2016-02-14T00:58:24.145Z,0
2016-02-14T00:59:24.147Z,0
2016-02-14T01:00:24.134Z,0
2016-02-14T01:01:24.153Z,0
2016-02-14T01:02:24.139Z,0
2016-02-14T01:03:24.142Z,0
2016-02-14T01:04:24.176Z,0
2016-02-14T01:05:24.163Z,0
2016-02-14T01:06:24.166Z,0
2016-02-14T01:07:24.137Z,0
2016-02-14T01:08:24.140Z,0
2016-02-14T01:09:24.142Z,0
2016-02-14T01:10:24.145Z,0
2016-02-14T01:11:24.147Z,0
2016-02-14T01:12:24.135Z,0
2016-02-14T01:13:24.138Z,0
2016-02-14T01:14:24.140Z,0
2016-02-14T01:15:24.159Z,0
2016-02-14T01:16:24.146Z,0
2016-02-14T01:17:24.149Z,0
2016-02-14T01:18:24.151Z,0
2016-02-14T01:19:24.138Z,0
2016-02-14T01:20:24.141Z,0
2016-02-14T01:21:24.143Z,0
2016-02-14T01:22:24.146Z,0
2016-02-14T01:23:24.133Z,0
2016-02-14T01:24:24.136Z,0
2016-02-14T01:25:24.139Z,0
2016-02-14T01:26:24.141Z,0
2016-02-14T01:27:24.159Z,0
2016-02-14T01:28:24.147Z,0
2016-02-14T01:29:24.118Z,0
2016-02-14T01:30:24.120Z,0
2016-02-14T01:31:24.123Z,0
2016-02-14T01:32:24.126Z,0
2016-02-14T01:33:24.128Z,0
2016-02-14T01:34:24.132Z,0
2016-02-14T01:35:24.134Z,0
2016-02-14T01:36:24.136Z,0
2016-02-14T01:37:24.140Z,0
2016-02-14T01:38:24.142Z,0
2016-02-14T01:39:24.129Z,0
2016-02-14T01:40:24.133Z,0
2016-02-14T01:41:24.135Z,0
2016-02-14T01:42:24.122Z,0
2016-02-14T01:43:24.141Z,0
2016-02-14T01:44:24.127Z,0
2016-02-14T01:45:24.146Z,0
2016-02-14T01:46:24.133Z,0
2016-02-14T01:47:24.151Z,0
2016-02-14T01:48:24.169Z,0
2016-02-14T01:49:24.140Z,0
2016-02-14T01:50:24.127Z,0
2016-02-14T01:51:24.115Z,0
2016-02-14T01:52:24.117Z,0
2016-02-14T01:53:24.120Z,0
2016-02-14T01:54:23.966Z,0
2016-02-14T01:55:24.125Z,0
2016-02-14T01:56:24.112Z,0
2016-02-14T01:57:24.131Z,0
2016-02-14T01:58:24.118Z,0
2016-02-14T01:59:24.137Z,0
2016-02-14T02:00:24.108Z,0
2016-02-14T02:01:24.126Z,0
2016-02-14T02:02:23.988Z,0
2016-02-14T02:03:24.115Z,0
2016-02-14T02:04:24.118Z,0
2016-02-14T02:05:24.121Z,0
2016-02-14T02:06:24.123Z,0
2016-02-14T02:07:24.126Z,0
2016-02-14T02:08:24.114Z,0
2016-02-14T02:09:24.132Z,0
2016-02-14T02:10:24.103Z,0
2016-02-14T02:11:24.122Z,0
2016-02-14T02:12:24.124Z,0
2016-02-14T02:13:24.112Z,0
2016-02-14T02:14:24.114Z,0
2016-02-14T02:15:24.116Z,0
2016-02-14T02:16:24.119Z,0
2016-02-14T02:17:24.153Z,0
2016-02-14T02:18:24.125Z,0
2016-02-14T02:19:24.128Z,0
2016-02-14T02:20:24.115Z,0
2016-02-14T02:21:24.117Z,0
2016-02-14T02:22:24.105Z,0
2016-02-14T02:23:24.107Z,0
2016-02-14T02:24:24.109Z,0
2016-02-14T02:25:24.113Z,0
2016-02-14T02:26:24.131Z,0
2016-02-14T02:27:24.102Z,0
2016-02-14T02:28:24.105Z,0
2016-02-14T02:29:24.107Z,0
2016-02-14T02:30:24.126Z,0
2016-02-14T02:31:24.098Z,0
2016-02-14T02:32:24.147Z,0
2016-02-14T02:33:24.118Z,0
2016-02-14T02:34:24.106Z,0
2016-02-14T02:35:24.108Z,0
2016-02-14T02:36:24.111Z,0
2016-02-14T02:37:24.098Z,0
2016-02-14T02:38:24.100Z,0
2016-02-14T02:39:23.962Z,0
2016-02-14T02:40:24.106Z,0
2016-02-14T02:41:24.108Z,0
2016-02-14T02:42:24.095Z,0
2016-02-14T02:43:24.098Z,0
2016-02-14T02:44:24.100Z,0
2016-02-14T02:45:24.103Z,0
2016-02-14T02:46:24.091Z,0
2016-02-14T02:47:24.094Z,0
2016-02-14T02:48:24.096Z,0
2016-02-14T02:49:24.099Z,0
2016-02-14T02:50:24.102Z,0
2016-02-14T02:51:24.104Z,0
2016-02-14T02:52:24.091Z,0
2016-02-14T02:53:24.094Z,0
2016-02-14T02:54:24.097Z,0
2016-02-14T02:55:24.100Z,0
2016-02-14T02:56:23.946Z,0
2016-02-14T02:57:24.089Z,0
2016-02-14T02:58:24.093Z,0
2016-02-14T02:59:24.095Z,0
2016-02-14T03:00:24.097Z,0
2016-02-14T03:01:24.084Z,0
2016-02-14T03:02:24.071Z,0
2016-02-14T03:03:24.105Z,0
2016-02-14T03:04:24.093Z,0
2016-02-14T03:05:24.079Z,0
2016-02-14T03:06:24.081Z,0
2016-02-14T03:07:24.101Z,0
2016-02-14T03:08:24.087Z,0
2016-02-14T03:09:24.089Z,0
2016-02-14T03:10:24.078Z,0
2016-02-14T03:11:24.080Z,0
2016-02-14T03:12:24.098Z,0
2016-02-14T03:13:24.101Z,0
2016-02-14T03:14:24.103Z,0
2016-02-14T03:15:24.075Z,0
2016-02-14T03:16:24.078Z,0
2016-02-14T03:17:24.112Z,0
2016-02-14T03:18:24.067Z,0
2016-02-14T03:19:24.085Z,0
2016-02-14T03:20:24.089Z,0
2016-02-14T03:21:24.091Z,0
2016-02-14T03:22:24.078Z,0
2016-02-14T03:23:23.924Z,0
2016-02-14T03:24:24.083Z,0
2016-02-14T03:25:24.102Z,0
2016-02-14T03:26:24.088Z,0
2016-02-14T03:27:24.091Z,0
2016-02-14T03:28:24.063Z,0
2016-02-14T03:29:24.066Z,0
2016-02-14T03:30:24.068Z,0
2016-02-14T03:31:24.071Z,0
2016-02-14T03:32:24.074Z,0
2016-02-14T03:33:23.936Z,0
2016-02-14T03:34:24.064Z,0
2016-02-14T03:35:24.067Z,0
2016-02-14T03:36:24.069Z,0
2016-02-14T03:37:24.072Z,0
2016-02-14T03:38:24.090Z,0
2016-02-14T03:39:24.061Z,0
2016-02-14T03:40:24.065Z,0
2016-02-14T03:41:24.067Z,0
2016-02-14T03:42:24.069Z,0
2016-02-14T03:43:24.072Z,0
2016-02-14T03:44:24.091Z,0
2016-02-14T03:45:24.061Z,0
2016-02-14T03:46:24.064Z,0
2016-02-14T03:47:24.067Z,0
2016-02-14T03:48:24.069Z,0
2016-02-14T03:49:24.073Z,0
2016-02-14T03:50:24.075Z,0
2016-02-14T03:51:24.077Z,0
2016-02-14T03:52:24.081Z,0
2016-02-14T03:53:24.068Z,0
2016-02-14T03:54:24.055Z,0
2016-02-14T03:55:24.057Z,0
2016-02-14T03:56:24.076Z,0
2016-02-14T03:57:24.063Z,0
2016-02-14T03:58:23.910Z,0
2016-02-14T03:59:24.052Z,0
2016-02-14T04:00:24.055Z,0
2016-02-14T04:01:24.057Z,0
2016-02-14T04:02:24.061Z,0
2016-02-14T04:03:24.048Z,0
2016-02-14T04:04:24.065Z,0
2016-02-14T04:05:24.069Z,0
2016-02-14T04:06:24.040Z,0
2016-02-14T04:07:24.043Z,0
2016-02-14T04:08:24.045Z,0
2016-02-14T04:09:24.064Z,0
2016-02-14T04:10:24.050Z,0
2016-02-14T04:11:24.054Z,0
2016-02-14T04:12:24.056Z,0
2016-02-14T04:13:24.058Z,0
2016-02-14T04:14:24.062Z,0
2016-02-14T04:15:24.049Z,0
2016-02-14T04:16:24.036Z,0
2016-02-14T04:17:24.039Z,0
2016-02-14T04:18:24.041Z,0
2016-02-14T04:19:24.044Z,0
2016-02-14T04:20:24.047Z,0
2016-02-14T04:21:24.049Z,0
2016-02-14T04:22:24.052Z,0
2016-02-14T04:23:24.039Z,0
2016-02-14T04:24:24.041Z,0
2016-02-14T04:25:24.044Z,0
2016-02-14T04:26:24.047Z,0
2016-02-14T04:27:24.035Z,0
2016-02-14T04:28:24.037Z,0
2016-02-14T04:29:24.055Z,0
2016-02-14T04:30:24.042Z,0
2016-02-14T04:31:24.045Z,0
2016-02-14T04:32:24.047Z,0
2016-02-14T04:33:24.034Z,0
2016-02-14T04:34:24.037Z,0
2016-02-14T04:35:24.056Z,0
2016-02-14T04:36:24.027Z,0
2016-02-14T04:37:24.029Z,0
2016-02-14T04:38:24.048Z,0
2016-02-14T04:39:24.035Z,0
2016-02-14T04:40:24.037Z,0
2016-02-14T04:41:24.040Z,0
2016-02-14T04:42:24.028Z,0
2016-02-14T04:43:24.034Z,0
2016-02-14T04:44:24.022Z,0
2016-02-14T04:45:24.055Z,0
2016-02-14T04:46:24.043Z,0
2016-02-14T04:47:24.029Z,0
2016-02-14T04:48:23.876Z,0
2016-02-14T04:49:24.050Z,0
2016-02-14T04:50:24.038Z,0
2016-02-14T04:51:24.024Z,0
2016-02-14T04:52:24.011Z,0
2016-02-14T04:53:24.045Z,0
2016-02-14T04:54:24.017Z,0
2016-02-14T04:55:24.020Z,0
2016-02-14T04:56:24.022Z,0
2016-02-14T04:57:24.025Z,0
2016-02-14T04:58:24.028Z,0
2016-02-14T04:59:24.015Z,0
2016-02-14T05:00:24.033Z,0
2016-02-14T05:01:24.036Z,0
2016-02-14T05:02:24.022Z,0
2016-02-14T05:03:24.026Z,0
2016-02-14T05:04:24.044Z,0
2016-02-14T05:05:24.030Z,0
2016-02-14T05:06:24.002Z,0
2016-02-14T05:07:24.021Z,0
2016-02-14T05:08:24.008Z,0
2016-02-14T05:09:24.011Z,0
2016-02-14T05:10:24.013Z,0
2016-02-14T05:11:24.015Z,0
2016-02-14T05:12:24.020Z,0
2016-02-14T05:13:24.022Z,0
2016-02-14T05:14:24.008Z,0
2016-02-14T05:15:24.012Z,0
2016-02-14T05:16:24.014Z,0
2016-02-14T05:17:24.017Z,0
2016-02-14T05:18:24.005Z,0
2016-02-14T05:19:24.022Z,0
2016-02-14T05:20:24.010Z,0
2016-02-14T05:21:23.997Z,0
2016-02-14T05:22:24.015Z,0
2016-02-14T05:23:24.018Z,0
2016-02-14T05:24:24.004Z,0
2016-02-14T05:25:23.992Z,0
2016-02-14T05:26:23.994Z,0
2016-02-14T05:27:24.013Z,0
2016-02-14T05:28:24.000Z,0
2016-02-14T05:29:24.002Z,0
2016-02-14T05:30:23.990Z,0
2016-02-14T05:31:23.993Z,0
2016-02-14T05:32:23.995Z,0
2016-02-14T05:33:23.997Z,0
2016-02-14T05:34:23.985Z,0
2016-02-14T05:35:23.987Z,0
2016-02-14T05:36:24.006Z,0
2016-02-14T05:37:23.978Z,0
2016-02-14T05:38:24.011Z,0
2016-02-14T05:39:23.983Z,0
2016-02-14T05:40:24.001Z,0
2016-02-14T05:41:24.003Z,0
2016-02-14T05:42:23.991Z,0
2016-02-14T05:43:23.977Z,0
2016-02-14T05:44:23.980Z,0
2016-02-14T05:45:24.000Z,0
2016-02-14T05:46:23.986Z,0
2016-02-14T05:47:23.989Z,0
2016-02-14T05:48:23.991Z,0
2016-02-14T05:49:23.978Z,0
2016-02-14T05:50:23.981Z,0
2016-02-14T05:51:23.968Z,0
2016-02-14T05:52:23.971Z,0
2016-02-14T05:53:23.974Z,0
2016-02-14T05:54:23.992Z,0
2016-02-14T05:55:23.995Z,0
2016-02-14T05:56:23.982Z,0
2016-02-14T05:57:23.968Z,0
2016-02-14T05:58:23.971Z,0
2016-02-14T05:59:23.974Z,0
2016-02-14T06:00:23.992Z,0
2016-02-14T06:01:23.963Z,0
2016-02-14T06:02:23.966Z,4
2016-02-14T06:03:23.968Z,4
2016-02-14T06:04:23.835Z,0
2016-02-14T06:05:23.948Z,4
2016-02-14T06:06:23.967Z,4
2016-02-14T06:07:23.969Z,4
2016-02-14T06:08:23.956Z,4
2016-02-14T06:09:23.975Z,8
2016-02-14T06:10:23.961Z,8
2016-02-14T06:11:23.965Z,8
2016-02-14T06:12:23.951Z,12
2016-02-14T06:13:23.953Z,12
2016-02-14T06:14:23.972Z,16
2016-02-14T06:15:23.959Z,16
2016-02-14T06:16:23.930Z,24
2016-02-14T06:17:23.949Z,24
2016-02-14T06:18:23.983Z,24
2016-02-14T06:19:23.954Z,28
2016-02-14T06:20:23.958Z,36
2016-02-14T06:21:23.944Z,40
2016-02-14T06:22:23.931Z,44
2016-02-14T06:23:23.934Z,52
2016-02-14T06:24:23.952Z,60
2016-02-14T06:25:23.939Z,64
2016-02-14T06:26:23.926Z,72
2016-02-14T06:27:23.929Z,80
2016-02-14T06:28:23.932Z,88
2016-02-14T06:29:23.794Z,100
2016-02-14T06:30:23.937Z,108
2016-02-14T06:31:23.940Z,116
2016-02-14T06:32:23.927Z,128
2016-02-14T06:33:23.929Z,144
2016-02-14T06:34:23.948Z,156
2016-02-14T06:35:23.919Z,172
2016-02-14T06:36:23.938Z,192
2016-02-14T06:37:23.925Z,208
2016-02-14T06:38:23.928Z,228
2016-02-14T06:39:23.945Z,244
2016-02-14T06:40:23.933Z,264
2016-02-14T06:41:23.919Z,292
2016-02-14T06:42:23.939Z,320
2016-02-14T06:43:23.925Z,348
2016-02-14T06:44:23.943Z,384
2016-02-14T06:45:23.931Z,420
2016-02-14T06:46:23.933Z,452
2016-02-14T06:47:23.920Z,476
2016-02-14T06:48:23.923Z,500
2016-02-14T06:49:23.926Z,524
2016-02-14T06:50:23.928Z,564
2016-02-14T06:51:23.931Z,612
2016-02-14T06:52:23.918Z,660
2016-02-14T06:53:23.921Z,724
2016-02-14T06:54:23.908Z,800
2016-02-14T06:55:23.926Z,892
2016-02-14T06:56:23.913Z,1000
2016-02-14T06:57:23.916Z,1052
2016-02-14T06:58:23.935Z,1112
2016-02-14T06:59:23.749Z,1152
2016-02-14T07:00:23.909Z,1148
2016-02-14T07:01:23.901Z,1160
2016-02-14T07:02:23.893Z,1196
2016-02-14T07:03:23.887Z,1232
2016-02-14T07:04:23.879Z,1260
2016-02-14T07:05:23.857Z,1328
2016-02-14T07:06:23.856Z,1368
2016-02-14T07:07:23.854Z,1400
2016-02-14T07:08:23.682Z,1476
2016-02-14T07:09:23.853Z,1636
2016-02-14T07:10:23.836Z,1852
2016-02-14T07:11:23.870Z,2188
2016-02-14T07:12:23.856Z,2296
2016-02-14T07:13:23.826Z,2312
2016-02-14T07:14:23.670Z,2308
2016-02-14T07:15:23.830Z,2320
2016-02-14T07:16:23.832Z,2176
2016-02-14T07:17:23.833Z,1960
2016-02-14T07:18:23.820Z,1728
2016-02-14T07:19:23.822Z,1620
2016-02-14T07:20:23.841Z,1596
2016-02-14T07:21:23.827Z,1684
2016-02-14T07:22:23.830Z,1752
2016-02-14T07:23:23.831Z,1952
2016-02-14T07:24:23.850Z,2108
2016-02-14T07:25:23.836Z,2160
2016-02-14T07:26:23.823Z,2248
2016-02-14T07:27:23.826Z,2344
2016-02-14T07:28:23.814Z,2316
2016-02-14T07:29:23.831Z,2192
2016-02-14T07:30:23.833Z,2108
2016-02-14T07:31:23.822Z,2008
2016-02-14T07:32:23.824Z,1940
2016-02-14T07:33:23.827Z,1880
2016-02-14T07:34:23.845Z,1836
2016-02-14T07:35:23.816Z,1864
2016-02-14T07:36:23.835Z,1872
2016-02-14T07:37:23.822Z,1832
2016-02-14T07:38:23.840Z,1820
2016-02-14T07:39:23.811Z,1824
2016-02-14T07:40:23.815Z,1864
2016-02-14T07:41:23.817Z,1916
2016-02-14T07:42:23.835Z,2056
2016-02-14T07:43:23.823Z,2336
2016-02-14T07:44:23.825Z,2428
2016-02-14T07:45:23.828Z,2520
2016-02-14T07:46:23.831Z,2604
2016-02-14T07:47:23.833Z,2572
2016-02-14T07:48:23.836Z,2584
2016-02-14T07:49:23.823Z,2552
2016-02-14T07:50:23.825Z,2584
2016-02-14T07:51:23.829Z,2616
2016-02-14T07:52:23.831Z,2824
2016-02-14T07:53:23.834Z,2976
2016-02-14T07:54:23.820Z,3048
2016-02-14T07:55:23.823Z,3184
2016-02-14T07:56:23.826Z,3164
2016-02-14T07:57:23.828Z,3524
2016-02-14T07:58:23.816Z,3724
2016-02-14T07:59:23.818Z,3292
2016-02-14T08:00:23.822Z,3268
2016-02-14T08:01:23.824Z,3176
2016-02-14T08:02:23.842Z,3288
2016-02-14T08:03:23.813Z,3384
2016-02-14T08:04:23.832Z,4136
2016-02-14T08:05:23.835Z,3372
2016-02-14T08:06:23.665Z,3256
2016-02-14T08:07:23.824Z,3280
2016-02-14T08:08:23.827Z,3248
2016-02-14T08:09:23.814Z,3288
2016-02-14T08:10:23.832Z,3560
2016-02-14T08:11:23.835Z,3656
2016-02-14T08:12:23.821Z,3564
2016-02-14T08:13:23.825Z,3344
2016-02-14T08:14:23.827Z,3204
2016-02-14T08:15:23.829Z,3292
2016-02-14T08:16:23.833Z,3416
2016-02-14T08:17:23.820Z,3372
2016-02-14T08:18:23.823Z,3168
2016-02-14T08:19:23.826Z,2912
2016-02-14T08:20:23.828Z,2896
2016-02-14T08:21:23.831Z,3080
2016-02-14T08:22:23.818Z,3220
2016-02-14T08:23:23.821Z,3128
2016-02-14T08:24:23.822Z,3088
2016-02-14T08:25:23.841Z,2964
2016-02-14T08:26:23.859Z,2804
2016-02-14T08:27:23.847Z,2668
2016-02-14T08:28:23.819Z,2756
2016-02-14T08:29:23.821Z,2888
2016-02-14T08:30:23.824Z,2876
2016-02-14T08:31:23.842Z,2868
2016-02-14T08:32:23.829Z,2820
2016-02-14T08:33:23.832Z,2800
2016-02-14T08:34:23.835Z,2780
2016-02-14T08:35:23.837Z,2840
2016-02-14T08:36:23.841Z,2996
2016-02-14T08:37:23.843Z,2976
2016-02-14T08:38:23.845Z,2900
2016-02-14T08:39:23.691Z,2896
2016-02-14T08:40:23.835Z,3116
2016-02-14T08:41:23.838Z,3260
2016-02-14T08:42:23.840Z,3176
2016-02-14T08:43:23.843Z,3176
2016-02-14T08:44:23.829Z,2988
2016-02-14T08:45:23.865Z,2768
2016-02-14T08:46:23.835Z,2788
2016-02-14T08:47:23.837Z,3024
2016-02-14T08:48:23.856Z,3380
2016-02-14T08:49:23.843Z,3652
2016-02-14T08:50:23.862Z,3688
2016-02-14T08:51:23.834Z,3620
2016-02-14T08:52:23.867Z,3628
2016-02-14T08:53:23.839Z,3632
2016-02-14T08:54:23.857Z,3524
2016-02-14T08:55:23.859Z,3484
2016-02-14T08:56:23.847Z,3324
2016-02-14T08:57:23.850Z,3200
2016-02-14T08:58:23.852Z,3112
2016-02-14T08:59:23.855Z,3136
2016-02-14T09:00:23.841Z,3272
2016-02-14T09:01:23.845Z,3364
2016-02-14T09:02:23.847Z,3388
2016-02-14T09:03:23.866Z,3420
2016-02-14T09:04:23.869Z,3612
2016-02-14T09:05:23.855Z,3868
2016-02-14T09:06:23.858Z,3864
2016-02-14T09:07:23.860Z,3784
2016-02-14T09:08:23.847Z,3652
2016-02-14T09:09:23.897Z,3576
2016-02-14T09:10:23.852Z,3584
2016-02-14T09:11:23.856Z,3772
2016-02-14T09:12:23.843Z,4008
2016-02-14T09:13:23.846Z,4168
2016-02-14T09:14:23.863Z,4180
2016-02-14T09:15:23.851Z,4196
2016-02-14T09:16:23.854Z,4376
2016-02-14T09:17:23.856Z,4424
2016-02-14T09:18:23.874Z,4176
2016-02-14T09:19:23.862Z,3996
2016-02-14T09:20:23.865Z,3892
2016-02-14T09:21:23.867Z,3852
2016-02-14T09:22:23.885Z,3796
2016-02-14T09:23:23.857Z,3468
2016-02-14T09:24:23.890Z,3232
2016-02-14T09:25:23.846Z,3184
2016-02-14T09:26:23.881Z,3444
2016-02-14T09:27:23.867Z,3744
2016-02-14T09:28:23.855Z,3896
2016-02-14T09:29:23.858Z,3684
2016-02-14T09:30:23.860Z,3356
2016-02-14T09:31:23.863Z,3096
2016-02-14T09:32:23.866Z,2928
2016-02-14T09:33:23.883Z,2764
2016-02-14T09:34:23.871Z,2644
2016-02-14T09:35:23.874Z,2600
2016-02-14T09:36:23.876Z,2748
2016-02-14T09:37:23.880Z,3008
2016-02-14T09:38:23.882Z,3268
2016-02-14T09:39:23.868Z,3336
2016-02-14T09:40:23.872Z,3140
2016-02-14T09:41:23.874Z,2996
2016-02-14T09:42:23.876Z,2972
2016-02-14T09:43:23.879Z,3032
2016-02-14T09:44:23.882Z,3208
2016-02-14T09:45:23.885Z,3468
2016-02-14T09:46:23.903Z,3612
2016-02-14T09:47:23.874Z,3668
2016-02-14T09:48:23.909Z,3736
2016-02-14T09:49:23.864Z,3816
2016-02-14T09:50:23.898Z,3764
2016-02-14T09:51:23.884Z,3544
2016-02-14T09:52:23.920Z,3392
2016-02-14T09:53:23.875Z,3296
2016-02-14T09:54:23.893Z,3104
2016-02-14T09:55:23.896Z,2952
2016-02-14T09:56:23.898Z,2972
2016-02-14T09:57:23.901Z,3140
2016-02-14T09:58:23.889Z,3320
2016-02-14T09:59:23.906Z,3540
2016-02-14T10:00:23.894Z,3664
2016-02-14T10:01:23.897Z,3492
2016-02-14T10:02:23.900Z,3332
2016-02-14T10:03:23.886Z,3480
2016-02-14T10:04:23.888Z,3744
2016-02-14T10:05:23.892Z,4120
2016-02-14T10:06:23.894Z,4384
2016-02-14T10:07:23.896Z,4384
2016-02-14T10:08:23.916Z,4348
2016-02-14T10:09:23.902Z,4224
2016-02-14T10:10:23.921Z,4024
2016-02-14T10:11:23.908Z,3832
2016-02-14T10:12:23.910Z,3620
2016-02-14T10:13:23.929Z,3556
2016-02-14T10:14:23.900Z,3560
2016-02-14T10:15:23.902Z,3660
2016-02-14T10:16:23.921Z,3820
2016-02-14T10:17:23.893Z,3908
2016-02-14T10:18:23.911Z,3964
2016-02-14T10:19:23.898Z,4200
2016-02-14T10:20:23.931Z,4380
2016-02-14T10:21:23.904Z,4412
2016-02-14T10:22:23.906Z,4492
2016-02-14T10:23:23.908Z,4608
2016-02-14T10:24:23.927Z,4848
2016-02-14T10:25:23.914Z,5060
2016-02-14T10:26:23.917Z,5312
2016-02-14T10:27:23.920Z,5376
2016-02-14T10:28:23.922Z,5468
2016-02-14T10:29:23.940Z,5416
2016-02-14T10:30:23.959Z,5340
2016-02-14T10:31:23.930Z,5136
2016-02-14T10:32:23.933Z,4868
2016-02-14T10:33:23.936Z,4908
2016-02-14T10:34:23.923Z,5036
2016-02-14T10:35:23.925Z,5156
2016-02-14T10:36:23.927Z,5660
2016-02-14T10:37:23.918Z,5792
2016-02-14T10:38:23.920Z,5548
2016-02-14T10:39:23.923Z,5392
2016-02-14T10:40:23.926Z,5804
2016-02-14T10:41:23.928Z,5496
2016-02-14T10:42:23.931Z,5024
2016-02-14T10:43:23.934Z,4568
2016-02-14T10:44:23.936Z,4240
2016-02-14T10:45:23.939Z,3872
2016-02-14T10:46:23.942Z,3848
2016-02-14T10:47:23.944Z,3972
2016-02-14T10:48:23.933Z,4124
2016-02-14T10:49:23.935Z,4324
2016-02-14T10:50:23.937Z,4492
2016-02-14T10:51:23.940Z,4728
2016-02-14T10:52:23.942Z,4948
2016-02-14T10:53:23.960Z,5076
2016-02-14T10:54:23.948Z,4692
2016-02-14T10:55:23.966Z,4420
2016-02-14T10:56:23.938Z,4148
2016-02-14T10:57:23.987Z,3812
2016-02-14T10:58:23.943Z,3528
2016-02-14T10:59:23.946Z,3360
2016-02-14T11:00:23.964Z,3228
2016-02-14T11:01:23.951Z,3064
2016-02-14T11:02:23.970Z,2920
2016-02-14T11:03:23.988Z,2860
2016-02-14T11:04:23.959Z,2868
2016-02-14T11:05:23.962Z,2884
2016-02-14T11:06:23.965Z,2856
2016-02-14T11:07:23.967Z,2832
2016-02-14T11:08:23.969Z,2868
2016-02-14T11:09:23.958Z,2960
2016-02-14T11:10:23.991Z,3108
2016-02-14T11:11:23.963Z,3276
2016-02-14T11:12:23.981Z,3456
2016-02-14T11:13:23.968Z,3640
2016-02-14T11:14:23.971Z,3808
2016-02-14T11:15:23.974Z,4000
2016-02-14T11:16:23.976Z,4144
2016-02-14T11:17:23.994Z,3992
2016-02-14T11:18:23.982Z,3608
2016-02-14T11:19:24.000Z,3284
2016-02-14T11:20:23.987Z,3044
2016-02-14T11:21:23.990Z,2996
2016-02-14T11:22:23.993Z,3072
2016-02-14T11:23:26.135Z,3076
2016-02-14T11:24:23.998Z,2968
2016-02-14T11:25:24.000Z,2820
2016-02-14T11:26:24.019Z,2668
2016-02-14T11:27:24.006Z,2548
2016-02-14T11:28:24.023Z,2480
2016-02-14T11:29:24.058Z,2476
2016-02-14T11:30:24.014Z,2496
2016-02-14T11:31:23.859Z,2500
2016-02-14T11:32:24.004Z,2520
2016-02-14T11:33:24.006Z,2588
2016-02-14T11:34:24.056Z,2660
2016-02-14T11:35:24.012Z,2728
2016-02-14T11:36:23.998Z,2808
2016-02-14T11:37:24.017Z,2860
2016-02-14T11:38:24.003Z,2924
2016-02-14T11:39:24.006Z,2956
2016-02-14T11:40:24.009Z,2872
2016-02-14T11:41:24.012Z,2680
2016-02-14T11:42:24.030Z,2496
2016-02-14T11:43:24.017Z,2364
2016-02-14T11:44:24.036Z,2308
2016-02-14T11:45:24.038Z,2312
2016-02-14T11:46:24.025Z,2332
2016-02-14T11:47:24.044Z,2316
2016-02-14T11:48:24.030Z,2272
2016-02-14T11:49:24.034Z,2220
2016-02-14T11:50:24.021Z,2172
2016-02-14T11:51:24.039Z,2128
2016-02-14T11:52:24.307Z,2068
2016-02-14T11:53:24.028Z,2008
2016-02-14T11:54:24.063Z,1956
2016-02-14T11:55:24.049Z,1916
2016-02-14T11:56:24.037Z,1904
2016-02-14T11:57:24.040Z,1900
2016-02-14T11:58:24.042Z,1888
2016-02-14T11:59:24.060Z,1836
2016-02-14T12:00:24.031Z,1760
2016-02-14T12:01:24.065Z,1672
2016-02-14T12:02:24.053Z,1592
2016-02-14T12:03:24.070Z,1532
2016-02-14T12:04:24.058Z,1488
2016-02-14T12:05:24.045Z,1472
2016-02-14T12:06:24.047Z,1484
2016-02-14T12:07:24.066Z,1508
2016-02-14T12:08:24.037Z,1560
2016-02-14T12:09:24.072Z,1640
2016-02-14T12:10:24.059Z,1728
2016-02-14T12:11:24.061Z,1804
2016-02-14T12:12:24.064Z,1872
2016-02-14T12:13:24.051Z,1944
2016-02-14T12:14:24.085Z,2044
2016-02-14T12:15:24.056Z,2140
2016-02-14T12:16:24.075Z,2196
2016-02-14T12:17:24.061Z,2236
2016-02-14T12:18:24.064Z,2332
2016-02-14T12:19:24.066Z,2504
2016-02-14T12:20:24.086Z,2684
2016-02-14T12:21:24.072Z,2792
2016-02-14T12:22:24.090Z,2808
2016-02-14T12:23:24.078Z,2752
2016-02-14T12:24:24.096Z,2688
2016-02-14T12:25:24.083Z,2632
2016-02-14T12:26:24.085Z,2600
2016-02-14T12:27:24.089Z,2628
2016-02-14T12:28:24.076Z,2780
2016-02-14T12:29:24.078Z,2904
2016-02-14T12:30:24.082Z,2984
2016-02-14T12:31:24.084Z,3120
2016-02-14T12:32:24.102Z,3060
2016-02-14T12:33:24.073Z,3092
2016-02-14T12:34:24.076Z,3156
2016-02-14T12:35:24.079Z,3124
2016-02-14T12:36:24.112Z,3104
2016-02-14T12:37:24.084Z,3112
2016-02-14T12:38:24.103Z,3140
2016-02-14T12:39:24.090Z,3148
2016-02-14T12:40:24.092Z,3092
2016-02-14T12:41:24.111Z,3000
2016-02-14T12:42:24.098Z,2888
2016-02-14T12:43:24.116Z,2792
2016-02-14T12:44:24.103Z,2680
2016-02-14T12:45:24.122Z,2604
2016-02-14T12:46:24.094Z,2604
2016-02-14T12:47:24.096Z,2616
2016-02-14T12:48:24.114Z,2568
2016-02-14T12:49:24.101Z,2472
2016-02-14T12:50:24.104Z,2404
2016-02-14T12:51:24.138Z,2360
2016-02-14T12:52:24.093Z,2328
2016-02-14T12:53:24.113Z,2316
2016-02-14T12:54:24.115Z,2300
2016-02-14T12:55:24.102Z,2228
2016-02-14T12:56:24.135Z,2120
2016-02-14T12:57:24.107Z,2008
2016-02-14T12:58:24.141Z,1960
2016-02-14T12:59:24.112Z,1976
2016-02-14T13:00:24.115Z,1992
2016-02-14T13:01:24.117Z,1940
2016-02-14T13:02:24.105Z,1836
2016-02-14T13:03:24.139Z,1716
2016-02-14T13:04:24.109Z,1608
2016-02-14T13:05:24.145Z,1560
2016-02-14T13:06:24.115Z,1412
2016-02-14T13:07:24.103Z,1368
2016-02-14T13:08:24.120Z,1384
2016-02-14T13:09:24.124Z,1288
2016-02-14T13:10:24.142Z,1260
2016-02-14T13:11:24.128Z,1180
2016-02-14T13:12:24.131Z,1180
2016-02-14T13:13:24.119Z,1244
2016-02-14T13:14:24.122Z,1300
2016-02-14T13:15:24.139Z,1300
2016-02-14T13:16:24.142Z,1380
2016-02-14T13:17:24.130Z,1520
2016-02-14T13:18:24.132Z,1468
2016-02-14T13:19:24.135Z,1412
2016-02-14T13:20:24.138Z,1328
2016-02-14T13:21:24.141Z,1252
2016-02-14T13:22:24.143Z,1292
2016-02-14T13:23:24.146Z,1364
2016-02-14T13:24:24.164Z,1380
2016-02-14T13:25:24.135Z,1468
2016-02-14T13:26:24.154Z,1512
2016-02-14T13:27:24.141Z,1524
2016-02-14T13:28:24.159Z,1516
2016-02-14T13:29:24.130Z,1512
2016-02-14T13:30:24.133Z,1472
2016-02-14T13:31:24.151Z,1420
2016-02-14T13:32:24.138Z,1392
2016-02-14T13:33:24.141Z,1384
2016-02-14T13:34:24.160Z,1316
2016-02-14T13:35:24.146Z,1228
2016-02-14T13:36:24.165Z,1152
2016-02-14T13:37:24.120Z,1088
2016-02-14T13:38:24.139Z,1092
2016-02-14T13:39:24.142Z,1144
2016-02-14T13:40:24.144Z,1140
2016-02-14T13:41:24.148Z,1048
2016-02-14T13:42:24.150Z,1040
2016-02-14T13:43:24.153Z,1112
2016-02-14T13:44:24.155Z,1184
2016-02-14T13:45:24.142Z,1096
2016-02-14T13:46:24.176Z,1104
2016-02-14T13:47:24.147Z,1172
2016-02-14T13:48:24.151Z,1152
2016-02-14T13:49:24.152Z,1132
2016-02-14T13:50:24.156Z,1236
2016-02-14T13:51:24.143Z,1384
2016-02-14T13:52:24.145Z,1456
2016-02-14T13:53:24.149Z,1444
2016-02-14T13:54:24.166Z,1408
2016-02-14T13:55:24.154Z,1396
2016-02-14T13:56:24.140Z,1424
2016-02-14T13:57:24.144Z,1444